createdAt,value
2019-02-28T00:01:03.041Z,86.63
2019-02-28T00:03:31.555Z,84.20
2019-02-28T00:06:00.168Z,82.82
2019-02-28T00:08:28.716Z,85.57
2019-02-28T00:10:57.175Z,93.30
2019-02-28T00:13:25.626Z,87.53
2019-02-28T00:15:54.177Z,84.35
2019-02-28T00:18:22.664Z,94.07
2019-02-28T00:20:51.187Z,92.17
2019-02-28T00:23:22.041Z,95.42
2019-02-28T00:25:49.950Z,101.33
2019-02-28T00:28:18.392Z,93.20
2019-02-28T00:30:46.868Z,93.12
2019-02-28T00:33:15.387Z,92.90
2019-02-28T00:35:44.676Z,90.83
2019-02-28T00:38:13.988Z,95.60
2019-02-28T00:40:42.433Z,94.55
2019-02-28T00:43:10.876Z,92.88
2019-02-28T00:45:39.425Z,91.30
2019-02-28T00:48:07.867Z,95.60
2019-02-28T00:50:36.313Z,96.28
2019-02-28T00:53:06.494Z,92.60
2019-02-28T00:55:35.253Z,92.00
2019-02-28T00:58:03.704Z,93.85
2019-02-28T01:00:32.296Z,88.37
2019-02-28T01:03:00.799Z,100.72
2019-02-28T01:05:29.315Z,94.30
2019-02-28T01:07:57.948Z,90.32
2019-02-28T01:10:26.527Z,87.85
2019-02-28T01:12:54.967Z,95.15
2019-02-28T01:15:23.601Z,90.45
2019-02-28T01:17:52.047Z,94.15
2019-02-28T01:20:20.551Z,91.92
2019-02-28T01:22:49.079Z,88.25
2019-02-28T01:25:18.467Z,91.47
2019-02-28T01:27:47.011Z,87.10
2019-02-28T01:30:16.720Z,84.70
2019-02-28T01:32:49.772Z,88.78
2019-02-28T01:35:16.672Z,90.95
2019-02-28T01:37:45.133Z,89.47
2019-02-28T01:40:15.275Z,93.00
2019-02-28T01:42:43.790Z,91.47
2019-02-28T01:45:13.513Z,89.97
2019-02-28T01:47:42.090Z,86.35
2019-02-28T01:50:12.067Z,94.37
2019-02-28T01:52:44.333Z,86.15
2019-02-28T01:55:11.923Z,87.12
2019-02-28T01:57:44.158Z,90.03
2019-02-28T02:00:15.940Z,86.93
2019-02-28T02:02:44.456Z,80.57
2019-02-28T02:05:12.987Z,88.42
2019-02-28T02:07:41.525Z,84.77
2019-02-28T02:10:20.413Z,86.30
2019-02-28T02:12:47.884Z,80.15
2019-02-28T02:15:17.041Z,91.85
2019-02-28T02:17:46.482Z,89.58
2019-02-28T02:20:15.983Z,89.50
2019-02-28T02:22:45.333Z,94.67
2019-02-28T02:25:14.272Z,86.10
2019-02-28T02:27:42.864Z,90.85
2019-02-28T02:30:35.313Z,92.78
2019-02-28T02:33:03.901Z,88.17
2019-02-28T02:35:32.426Z,94.65
2019-02-28T02:38:03.637Z,92.90
2019-02-28T02:40:31.253Z,90.67
2019-02-28T02:42:59.704Z,84.77
2019-02-28T02:45:28.144Z,91.72
2019-02-28T02:47:56.628Z,86.08
2019-02-28T02:50:25.074Z,81.35
2019-02-28T02:52:53.519Z,85.25
2019-02-28T02:55:27.893Z,80.92
2019-02-28T02:57:52.153Z,84.37
2019-02-28T03:00:20.836Z,87.37
2019-02-28T03:02:49.571Z,85.83
2019-02-28T03:05:18.102Z,80.38
2019-02-28T03:07:46.536Z,79.77
2019-02-28T03:10:20.547Z,83.78
2019-02-28T03:12:49.006Z,86.08
2019-02-28T03:15:25.190Z,85.28
2019-02-28T03:20:17.683Z,83.92
2019-02-28T03:22:46.132Z,92.90
2019-02-28T03:25:18.199Z,81.50
2019-02-28T03:27:46.717Z,88.52
2019-02-28T03:30:29.273Z,86.37
2019-02-28T03:32:47.968Z,83.20
2019-02-28T03:35:16.521Z,87.22
2019-02-28T03:37:45.371Z,100.87
2019-02-28T03:40:39.728Z,91.63
2019-02-28T03:43:06.754Z,90.15
2019-02-28T03:45:35.383Z,102.67
2019-02-28T03:48:04.153Z,84.67
2019-02-28T03:50:32.599Z,91.08
2019-02-28T03:53:01.041Z,86.28
2019-02-28T03:55:29.579Z,89.72
2019-02-28T03:58:03.917Z,84.07
2019-02-28T04:00:32.406Z,85.92
2019-02-28T04:02:59.144Z,85.70
2019-02-28T04:05:28.528Z,85.97
2019-02-28T04:07:57.082Z,80.03
2019-02-28T04:10:25.577Z,86.28
2019-02-28T04:12:54.040Z,83.17
2019-02-28T04:15:23.067Z,86.12
2019-02-28T04:17:51.597Z,86.37
2019-02-28T04:20:20.066Z,84.37
2019-02-28T04:22:48.629Z,91.45
2019-02-28T04:25:22.758Z,89.67
2019-02-28T04:27:47.284Z,96.40
2019-02-28T04:30:15.898Z,89.17
2019-02-28T04:32:44.365Z,94.80
2019-02-28T04:35:13.120Z,95.20
2019-02-28T04:37:46.814Z,96.65
2019-02-28T04:40:14.694Z,92.37
2019-02-28T04:42:43.308Z,97.57
2019-02-28T04:45:35.565Z,88.55
2019-02-28T04:48:04.089Z,92.27
2019-02-28T04:50:32.524Z,94.40
2019-02-28T04:53:01.067Z,91.55
2019-02-28T04:55:30.623Z,104.70
2019-02-28T04:57:59.397Z,98.47
2019-02-28T05:00:27.916Z,99.80
2019-02-28T05:02:56.357Z,96.57
2019-02-28T05:05:24.951Z,102.32
2019-02-28T05:07:53.423Z,101.38
2019-02-28T05:10:22.256Z,107.58
2019-02-28T05:12:51.500Z,105.50
2019-02-28T05:15:20.040Z,107.97
2019-02-28T05:17:48.488Z,113.65
2019-02-28T05:20:16.973Z,109.05
2019-02-28T05:22:45.440Z,108.22
2019-02-28T05:25:17.747Z,106.63
2019-02-28T05:27:44.051Z,111.33
2019-02-28T05:30:17.971Z,104.23
2019-02-28T05:33:06.600Z,108.60
2019-02-28T05:35:33.895Z,99.90
2019-02-28T05:38:02.346Z,104.92
2019-02-28T05:40:30.800Z,111.10
2019-02-28T05:42:59.273Z,104.70
2019-02-28T05:45:27.707Z,111.68
2019-02-28T05:47:56.155Z,128.42
2019-02-28T05:50:24.632Z,124.50
2019-02-28T05:52:53.090Z,129.97
2019-02-28T05:55:24.852Z,133.57
2019-02-28T05:57:51.724Z,157.23
2019-02-28T06:00:21.875Z,158.00
2019-02-28T06:02:50.334Z,145.77
2019-02-28T06:05:18.807Z,179.55
2019-02-28T06:07:47.327Z,152.05
2019-02-28T06:10:16.134Z,189.80
2019-02-28T06:12:45.064Z,171.87
2019-02-28T06:15:17.505Z,173.00
2019-02-28T06:17:46.060Z,151.68
2019-02-28T06:20:16.943Z,167.98
2019-02-28T06:22:45.188Z,155.48
2019-02-28T06:25:22.799Z,159.27
2019-02-28T06:27:49.155Z,142.82
2019-02-28T06:30:16.653Z,151.53
2019-02-28T06:32:45.113Z,152.32
2019-02-28T06:35:17.242Z,219.53
2019-02-28T06:37:51.394Z,206.97
2019-02-28T06:40:19.940Z,194.70
2019-02-28T06:42:48.546Z,186.47
2019-02-28T06:45:18.370Z,191.82
2019-02-28T06:47:49.561Z,188.05
2019-02-28T06:50:17.329Z,238.50
2019-02-28T06:52:45.793Z,248.55
2019-02-28T06:55:27.423Z,241.27
2019-02-28T06:57:58.780Z,234.85
2019-02-28T07:00:26.153Z,217.25
2019-02-28T07:02:54.629Z,203.35
2019-02-28T07:05:25.774Z,198.40
2019-02-28T07:07:53.295Z,182.88
2019-02-28T07:10:21.773Z,181.90
2019-02-28T07:12:50.221Z,171.20
2019-02-28T07:15:23.710Z,166.07
2019-02-28T07:17:49.253Z,163.68
2019-02-28T07:20:20.724Z,156.90
2019-02-28T07:22:54.686Z,156.35
2019-02-28T07:25:19.380Z,148.78
2019-02-28T07:27:47.829Z,140.28
2019-02-28T07:30:18.749Z,139.97
2019-02-28T07:32:47.830Z,132.65
2019-02-28T07:35:16.361Z,133.37
2019-02-28T07:37:44.846Z,126.85
2019-02-28T07:40:16.970Z,119.82
2019-02-28T07:42:45.992Z,119.75
2019-02-28T07:45:15.504Z,117.33
2019-02-28T07:47:44.289Z,118.82
2019-02-28T07:50:14.844Z,118.33
2019-02-28T07:52:43.632Z,114.42
2019-02-28T07:55:17.317Z,113.03
2019-02-28T07:57:51.234Z,113.90
2019-02-28T08:00:21.288Z,109.65
2019-02-28T08:02:50.075Z,114.52
2019-02-28T08:05:18.763Z,102.70
2019-02-28T08:07:51.972Z,104.72
2019-02-28T08:10:25.894Z,110.20
2019-02-28T08:12:54.359Z,98.52
2019-02-28T08:15:24.251Z,90.38
2019-02-28T08:17:52.875Z,97.60
2019-02-28T08:20:21.684Z,96.12
2019-02-28T08:22:50.301Z,87.80
2019-02-28T08:25:18.748Z,85.15
2019-02-28T08:27:47.364Z,83.58
2019-02-28T08:30:19.589Z,82.05
2019-02-28T08:32:48.787Z,77.92
2019-02-28T08:35:17.337Z,79.95
2019-02-28T08:37:45.777Z,78.80
2019-02-28T08:40:20.159Z,71.50
2019-02-28T08:42:49.971Z,67.70
2019-02-28T08:45:18.565Z,68.00
2019-02-28T08:47:47.086Z,71.33
2019-02-28T08:50:26.043Z,66.35
2019-02-28T08:53:05.073Z,65.32
2019-02-28T08:55:33.660Z,63.50
2019-02-28T08:58:06.228Z,62.13
2019-02-28T09:00:33.258Z,64.32
2019-02-28T09:03:02.235Z,59.90
2019-02-28T09:05:30.684Z,60.83
2019-02-28T09:07:59.134Z,55.55
2019-02-28T09:10:27.923Z,58.05
2019-02-28T09:12:56.439Z,54.83
2019-02-28T09:15:30.177Z,59.38
2019-02-28T09:17:58.214Z,54.40
2019-02-28T09:20:25.488Z,57.73
2019-02-28T09:22:53.931Z,50.65
2019-02-28T09:25:23.754Z,50.90
2019-02-28T09:27:52.440Z,58.58
2019-02-28T09:30:33.328Z,52.23
2019-02-28T09:33:01.772Z,51.23
2019-02-28T09:35:30.219Z,55.50
2019-02-28T09:38:03.232Z,53.45
2019-02-28T09:40:30.611Z,56.45
2019-02-28T09:42:59.217Z,47.45
2019-02-28T09:45:32.783Z,42.15
2019-02-28T09:48:02.331Z,44.85
2019-02-28T09:50:33.026Z,41.60
2019-02-28T09:53:01.340Z,44.03
2019-02-28T09:55:34.147Z,39.40
2019-02-28T09:57:59.976Z,38.28
2019-02-28T10:00:29.088Z,35.95
2019-02-28T10:02:57.611Z,45.58
2019-02-28T10:05:26.110Z,29.32
2019-02-28T10:07:54.648Z,33.02
2019-02-28T10:10:25.472Z,31.82
2019-02-28T10:12:53.916Z,34.83
2019-02-28T10:15:23.233Z,31.50
2019-02-28T10:17:51.839Z,30.17
2019-02-28T10:20:28.541Z,36.05
2019-02-28T10:22:57.518Z,27.55
2019-02-28T10:25:26.050Z,26.42
2019-02-28T10:27:54.986Z,20.25
2019-02-28T10:30:31.868Z,20.65
2019-02-28T10:32:55.747Z,23.10
2019-02-28T10:35:24.301Z,19.67
2019-02-28T10:37:57.347Z,20.55
2019-02-28T10:40:27.029Z,17.15
2019-02-28T10:42:55.576Z,48.10
2019-02-28T10:45:24.924Z,23.18
2019-02-28T10:47:53.612Z,53.95
2019-02-28T10:50:33.309Z,14.90
2019-02-28T10:53:03.986Z,17.90
2019-02-28T10:55:31.104Z,33.80
2019-02-28T10:57:59.890Z,18.57
2019-02-28T11:00:38.828Z,17.90
2019-02-28T11:03:31.746Z,17.82
2019-02-28T11:05:58.476Z,18.95
2019-02-28T11:08:26.984Z,13.88
2019-02-28T11:10:55.523Z,16.90
2019-02-28T11:13:24.192Z,15.13
2019-02-28T11:15:54.412Z,10.63
2019-02-28T11:18:22.929Z,8.43
2019-02-28T11:20:51.643Z,15.40
2019-02-28T11:23:21.825Z,15.75
2019-02-28T11:25:50.367Z,14.70
2019-02-28T11:28:19.467Z,16.87
2019-02-28T11:30:49.312Z,18.67
2019-02-28T11:33:18.847Z,19.60
2019-02-28T11:35:47.286Z,20.88
2019-02-28T11:38:21.719Z,22.20
2019-02-28T11:40:57.086Z,22.30
2019-02-28T11:43:20.354Z,18.90
2019-02-28T11:45:49.007Z,21.15
2019-02-28T11:48:20.571Z,23.92
2019-02-28T11:50:49.192Z,16.97
2019-02-28T11:53:19.112Z,21.95
2019-02-28T11:55:47.988Z,20.62
2019-02-28T11:58:35.784Z,20.75
2019-02-28T12:01:09.969Z,21.95
2019-02-28T12:03:35.532Z,18.02
2019-02-28T12:06:06.750Z,24.30
2019-02-28T12:08:35.091Z,18.52
2019-02-28T12:11:03.528Z,16.37
2019-02-28T12:13:31.971Z,19.25
2019-02-28T12:16:00.452Z,33.35
2019-02-28T12:18:28.896Z,22.60
2019-02-28T12:20:58.610Z,23.55
2019-02-28T12:23:27.601Z,20.92
2019-02-28T12:25:56.045Z,13.53
2019-02-28T12:28:24.505Z,18.80
2019-02-28T12:30:53.265Z,13.15
2019-02-28T12:33:23.359Z,18.32
2019-02-28T12:35:52.144Z,12.03
2019-02-28T12:38:20.616Z,12.50
2019-02-28T12:40:49.542Z,15.32
2019-02-28T12:43:18.224Z,13.83
2019-02-28T12:45:47.430Z,15.53
2019-02-28T12:48:16.444Z,8.65
2019-02-28T12:50:44.979Z,12.60
2019-02-28T12:53:13.457Z,18.02
2019-02-28T12:55:41.980Z,27.15
2019-02-28T12:58:10.438Z,18.65
2019-02-28T13:00:43.668Z,9.55
2019-02-28T13:03:19.448Z,10.15
2019-02-28T13:05:43.408Z,11.43
2019-02-28T13:08:11.950Z,16.45
2019-02-28T13:10:42.089Z,9.15
2019-02-28T13:13:10.720Z,10.30
2019-02-28T13:15:39.357Z,7.87
2019-02-28T13:18:09.376Z,19.48
2019-02-28T13:20:41.059Z,7.65
2019-02-28T13:23:09.533Z,9.80
2019-02-28T13:25:38.039Z,9.65
2019-02-28T13:28:07.845Z,8.28
2019-02-28T13:30:39.879Z,8.43
2019-02-28T13:33:06.681Z,6.85
2019-02-28T13:35:54.510Z,10.13
2019-02-28T13:38:23.026Z,8.08
2019-02-28T13:40:51.463Z,7.67
2019-02-28T13:43:22.649Z,6.40
2019-02-28T13:45:50.564Z,10.08
2019-02-28T13:48:26.066Z,10.63
2019-02-28T13:50:50.660Z,13.43
2019-02-28T13:53:19.177Z,4.83
2019-02-28T13:55:47.711Z,8.40
2019-02-28T13:58:17.659Z,8.80
2019-02-28T14:00:46.677Z,7.75
2019-02-28T14:03:16.951Z,7.53
2019-02-28T14:05:48.051Z,10.68
2019-02-28T14:08:16.661Z,5.53
2019-02-28T14:10:45.273Z,9.10
2019-02-28T14:13:13.970Z,9.63
2019-02-28T14:15:48.123Z,7.87
2019-02-28T14:18:17.046Z,12.15
2019-02-28T14:20:45.519Z,32.33
2019-02-28T14:23:17.282Z,10.93
2019-02-28T14:25:44.647Z,4.95
2019-02-28T14:28:13.249Z,3.40
2019-02-28T14:30:41.768Z,5.95
2019-02-28T14:33:10.292Z,5.35
2019-02-28T14:35:39.030Z,6.40
2019-02-28T14:38:07.527Z,7.25
2019-02-28T14:40:36.206Z,3.15
2019-02-28T14:43:04.896Z,3.92
2019-02-28T14:45:43.757Z,3.67
2019-02-28T14:48:12.544Z,4.72
2019-02-28T14:50:41.123Z,14.95
2019-02-28T14:53:13.108Z,7.97
2019-02-28T14:55:39.900Z,12.18
2019-02-28T14:58:08.488Z,13.08
2019-02-28T15:00:41.054Z,9.10
2019-02-28T15:03:07.715Z,17.73
2019-02-28T15:05:41.160Z,10.98
2019-02-28T15:08:11.917Z,7.42
2019-02-28T15:13:08.945Z,30.85
2019-02-28T15:15:37.532Z,12.43
2019-02-28T15:18:06.066Z,26.07
2019-02-28T15:20:34.584Z,25.72
2019-02-28T15:23:03.103Z,7.25
2019-02-28T15:25:31.832Z,5.20
2019-02-28T15:28:00.347Z,27.00
2019-02-28T15:30:39.925Z,20.10
2019-02-28T15:33:08.438Z,10.45
2019-02-28T15:35:37.055Z,8.70
2019-02-28T15:38:08.755Z,3.37
2019-02-28T15:40:44.163Z,7.95
2019-02-28T15:43:16.949Z,4.15
2019-02-28T15:45:42.829Z,3.05
2019-02-28T15:48:11.336Z,7.85
2019-02-28T15:50:39.805Z,5.15
2019-02-28T15:53:11.362Z,5.22
2019-02-28T15:55:39.044Z,7.37
2019-02-28T15:58:07.582Z,6.55
2019-02-28T16:00:36.998Z,6.72
2019-02-28T16:03:05.894Z,6.45
2019-02-28T16:05:34.438Z,7.10
2019-02-28T16:08:09.026Z,6.50
2019-02-28T16:10:36.999Z,6.53
2019-02-28T16:13:07.006Z,9.10
2019-02-28T16:15:35.768Z,6.55
2019-02-28T16:18:05.015Z,7.45
2019-02-28T16:20:33.478Z,7.25
2019-02-28T16:23:02.000Z,8.98
2019-02-28T16:25:35.985Z,8.60
2019-02-28T16:28:26.168Z,8.08
2019-02-28T16:30:54.611Z,9.93
2019-02-28T16:33:25.462Z,9.30
2019-02-28T16:35:54.013Z,9.70
2019-02-28T16:38:22.523Z,10.65
2019-02-28T16:40:50.975Z,9.65
2019-02-28T16:43:20.813Z,8.73
2019-02-28T16:45:50.785Z,8.78
2019-02-28T16:48:19.293Z,8.13
2019-02-28T16:50:50.730Z,8.75
2019-02-28T16:53:18.104Z,8.25
2019-02-28T16:55:46.547Z,11.05
2019-02-28T16:58:15.039Z,7.65
2019-02-28T17:00:46.278Z,13.18
2019-02-28T17:03:15.854Z,15.98
2019-02-28T17:05:44.053Z,9.80
2019-02-28T17:08:15.621Z,11.35
2019-02-28T17:10:43.379Z,6.70
2019-02-28T17:13:17.491Z,8.18
2019-02-28T17:16:01.445Z,7.55
2019-02-28T17:18:34.296Z,7.42
2019-02-28T17:21:02.740Z,7.20
2019-02-28T17:23:33.693Z,7.60
2019-02-28T17:26:01.579Z,7.37
2019-02-28T17:31:44.593Z,11.43
2019-02-28T17:34:14.630Z,15.32
2019-02-28T17:36:44.162Z,14.70
2019-02-28T17:39:14.840Z,15.18
2019-02-28T17:41:43.525Z,18.02
2019-02-28T17:44:18.376Z,13.60
2019-02-28T17:46:49.950Z,18.85
2019-02-28T17:49:54.720Z,16.20
2019-02-28T17:53:02.331Z,15.83
2019-02-28T17:55:36.645Z,13.60
2019-02-28T17:58:27.502Z,15.70
2019-02-28T18:01:19.262Z,18.25
2019-02-28T18:04:38.752Z,19.10
2019-02-28T18:07:28.705Z,12.30
2019-02-28T18:10:17.154Z,12.85
2019-02-28T18:12:54.804Z,16.35
2019-02-28T18:15:38.116Z,15.93
2019-02-28T18:18:21.500Z,14.00
2019-02-28T18:21:20.266Z,10.40
2019-02-28T18:24:15.772Z,9.35
2019-02-28T18:27:38.438Z,9.68
2019-02-28T18:30:36.766Z,9.53
2019-02-28T18:33:06.773Z,10.28
2019-02-28T18:35:35.592Z,7.53
2019-02-28T18:38:04.130Z,9.48
2019-02-28T18:40:32.593Z,6.95
2019-02-28T18:43:01.100Z,6.62
2019-02-28T18:45:29.573Z,8.33
2019-02-28T18:47:58.011Z,8.90
2019-02-28T18:50:26.544Z,7.33
2019-02-28T18:52:55.021Z,6.67
2019-02-28T18:55:23.464Z,9.45
2019-02-28T18:57:51.928Z,6.92
2019-02-28T19:00:21.520Z,5.50
2019-02-28T19:02:50.024Z,8.30
2019-02-28T19:05:18.470Z,6.10
2019-02-28T19:07:47.017Z,8.45
2019-02-28T19:10:15.538Z,10.28
2019-02-28T19:12:43.984Z,9.70
2019-02-28T19:15:15.996Z,10.60
2019-02-28T19:17:44.509Z,10.28
2019-02-28T19:20:13.088Z,9.25
2019-02-28T19:22:41.629Z,9.73
2019-02-28T19:25:11.721Z,8.45
2019-02-28T19:27:40.165Z,9.43
2019-02-28T19:30:13.644Z,9.68
2019-02-28T19:32:42.087Z,9.45
2019-02-28T19:35:10.677Z,10.98
2019-02-28T19:37:39.219Z,11.75
2019-02-28T19:40:14.248Z,8.75
2019-02-28T19:42:42.962Z,9.98
2019-02-28T19:45:14.619Z,13.70
2019-02-28T19:47:43.085Z,10.45
2019-02-28T19:50:11.870Z,11.25
2019-02-28T19:52:40.481Z,12.50
2019-02-28T19:55:15.471Z,12.88
2019-02-28T19:57:44.059Z,12.35
2019-02-28T20:00:19.827Z,13.13
2019-02-28T20:02:48.417Z,12.15
2019-02-28T20:05:16.944Z,11.95
2019-02-28T20:07:45.482Z,14.78
2019-02-28T20:10:16.436Z,13.43
2019-02-28T20:12:45.021Z,14.87
2019-02-28T20:15:15.533Z,12.03
2019-02-28T20:17:44.212Z,12.03
2019-02-28T20:20:21.601Z,16.95
2019-02-28T20:22:50.176Z,13.83
2019-02-28T20:25:18.701Z,13.35
2019-02-28T20:27:47.241Z,16.73
2019-02-28T20:30:37.946Z,13.95
2019-02-28T20:33:06.568Z,13.90
2019-02-28T20:35:35.021Z,16.42
2019-02-28T20:38:03.744Z,15.05
2019-02-28T20:40:36.608Z,17.00
2019-02-28T20:43:05.368Z,14.87
2019-02-28T20:45:33.822Z,14.30
2019-02-28T20:48:04.179Z,12.10
2019-02-28T20:50:54.011Z,14.98
2019-02-28T20:53:22.585Z,11.83
2019-02-28T20:55:51.164Z,12.25
2019-02-28T20:58:19.610Z,12.93
2019-02-28T21:00:48.079Z,13.78
2019-02-28T21:03:16.526Z,14.85
2019-02-28T21:05:45.038Z,15.18
2019-02-28T21:08:13.577Z,13.68
2019-02-28T21:10:42.024Z,16.37
2019-02-28T21:13:10.499Z,17.42
2019-02-28T21:15:39.038Z,18.45
2019-02-28T21:18:07.494Z,19.57
2019-02-28T21:20:35.976Z,22.60
2019-02-28T21:23:04.513Z,24.95
2019-02-28T21:25:32.969Z,23.65
2019-02-28T21:28:01.432Z,25.77
2019-02-28T21:30:29.995Z,29.50
2019-02-28T21:32:58.451Z,27.67
2019-02-28T21:35:27.643Z,27.15
2019-02-28T21:37:56.106Z,26.02
2019-02-28T21:40:25.156Z,24.07
2019-02-28T21:42:53.625Z,29.10
2019-02-28T21:45:24.708Z,32.33
2019-02-28T21:50:20.999Z,30.40
2019-02-28T21:52:50.380Z,35.30
2019-02-28T21:55:18.935Z,32.13
2019-02-28T21:57:47.555Z,32.67
2019-02-28T22:00:21.522Z,30.43
2019-02-28T22:02:50.115Z,28.60
2019-02-28T22:05:18.631Z,29.00
2019-02-28T22:07:47.199Z,30.95
2019-02-28T22:10:16.854Z,32.65
2019-02-28T22:12:45.384Z,28.47
2019-02-28T22:15:16.484Z,27.27
2019-02-28T22:17:44.993Z,23.07
2019-02-28T22:20:14.686Z,24.67
2019-02-28T22:22:43.247Z,26.20
2019-02-28T22:25:13.329Z,24.37
2019-02-28T22:27:41.868Z,24.92
2019-02-28T22:30:39.664Z,23.73
2019-02-28T22:33:25.937Z,25.02
2019-02-28T22:35:56.081Z,27.65
2019-02-28T22:38:24.537Z,28.53
2019-02-28T22:40:53.051Z,28.67
2019-02-28T22:43:21.522Z,29.70
2019-02-28T22:45:49.980Z,26.75
2019-02-28T22:48:18.440Z,29.87
2019-02-28T22:50:46.982Z,32.67
2019-02-28T22:53:15.424Z,30.88
2019-02-28T22:55:44.599Z,30.43
2019-02-28T22:58:13.157Z,35.70
2019-02-28T23:03:34.240Z,34.60
2019-02-28T23:06:03.052Z,39.30
2019-02-28T23:08:31.577Z,39.38
2019-02-28T23:11:20.906Z,39.75
2019-02-28T23:13:49.444Z,38.08
2019-02-28T23:16:18.072Z,39.80
2019-02-28T23:18:46.546Z,38.63
2019-02-28T23:21:14.995Z,41.18
2019-02-28T23:23:43.515Z,43.05
2019-02-28T23:26:13.367Z,45.98
2019-02-28T23:28:45.202Z,42.10
2019-02-28T23:31:22.812Z,40.95
2019-02-28T23:34:00.941Z,40.10
2019-02-28T23:36:22.654Z,41.00
2019-02-28T23:38:51.228Z,39.92
2019-02-28T23:41:19.688Z,42.73
2019-02-28T23:43:48.167Z,42.75
2019-02-28T23:46:16.665Z,38.63
2019-02-28T23:48:45.121Z,39.58
2019-02-28T23:51:13.559Z,50.80
2019-02-28T23:53:42.029Z,40.95
2019-02-28T23:56:10.539Z,38.15
2019-02-28T23:58:38.979Z,38.28
